Time;durP1;ratioP1;P1;durP2;ratioP2;P2;SDS_P1;SDS_P2;PMS_P1;PMS_P2;Temp;Humidity;BMP_temperature;BMP_pressure;BME280_temperature;BME280_humidity;BME280_pressure;Samples;Min_cycle;Max_cycle;Signal;HPM_P1;HPM_P2
2022/09/26 00:01:34;;;;;;;75.22;55.22;;;19.40;68.60;;;;;;4969075;28;98139;-47
2022/09/26 00:04:05;;;;;;;73.15;53.53;;;19.40;68.60;;;;;;4966142;28;94839;-48
2022/09/26 00:06:31;;;;;;;73.85;55.63;;;19.40;68.50;;;;;;4964666;28;97153;-49
2022/09/26 00:08:57;;;;;;;71.55;53.13;;;19.40;68.60;;;;;;4958983;28;96641;-49
2022/09/26 00:11:29;;;;;;;73.55;54.35;;;19.40;68.50;;;;;;4965611;28;95162;-48
2022/09/26 00:13:57;;;;;;;73.75;54.53;;;19.30;68.50;;;;;;4971578;28;96859;-47
2022/09/26 00:16:24;;;;;;;73.82;54.17;;;19.40;68.60;;;;;;4959884;28;94701;-49
2022/09/26 00:18:52;;;;;;;72.90;53.92;;;19.40;68.40;;;;;;4967615;28;96001;-47
2022/09/26 00:21:19;;;;;;;73.18;53.53;;;19.30;68.50;;;;;;4965420;28;95227;-52
2022/09/26 00:23:45;;;;;;;75.00;55.67;;;19.40;68.40;;;;;;4962990;28;95700;-48
2022/09/26 00:26:13;;;;;;;73.82;55.03;;;19.40;68.50;;;;;;4960066;28;96278;-49
2022/09/26 00:28:39;;;;;;;73.03;53.65;;;19.40;68.30;;;;;;4960771;28;95849;-47
2022/09/26 00:31:06;;;;;;;74.05;53.97;;;19.30;68.40;;;;;;4975375;28;95109;-50
2022/09/26 00:33:32;;;;;;;76.03;55.30;;;19.30;68.50;;;;;;4961751;28;95335;-51
2022/09/26 00:35:58;;;;;;;75.03;55.13;;;19.30;68.40;;;;;;4959693;28;94166;-50
2022/09/26 00:38:24;;;;;;;73.88;54.47;;;19.30;68.40;;;;;;4969481;28;96430;-51
2022/09/26 00:40:50;;;;;;;74.18;54.55;;;19.30;68.30;;;;;;4962787;28;97415;-50
2022/09/26 00:43:46;;;;;;;73.82;54.75;;;19.30;68.40;;;;;;4962846;28;98008;-49
2022/09/26 00:46:29;;;;;;;73.78;53.53;;;19.30;68.50;;;;;;4965807;28;100357;-50
2022/09/26 00:49:04;;;;;;;74.55;53.58;;;19.30;68.30;;;;;;4963966;28;96920;-52
2022/09/26 00:51:31;;;;;;;73.53;53.90;;;19.30;68.20;;;;;;4959747;28;96678;-51
2022/09/26 00:53:57;;;;;;;74.97;54.75;;;19.30;68.20;;;;;;4968810;28;100593;-52
2022/09/26 00:56:29;;;;;;;75.95;54.35;;;19.20;68.30;;;;;;4960887;28;95982;-50
2022/09/26 00:59:01;;;;;;;73.32;53.90;;;19.30;68.30;;;;;;4962436;28;100187;-48
2022/09/26 01:01:27;;;;;;;72.60;53.88;;;19.20;68.20;;;;;;4965355;28;97567;-51
2022/09/26 01:03:53;;;;;;;71.28;52.70;;;19.20;68.20;;;;;;4962420;28;95549;-51
2022/09/26 01:06:20;;;;;;;74.57;55.10;;;19.20;68.10;;;;;;4961677;28;96335;-51
2022/09/26 01:08:57;;;;;;;71.13;52.90;;;19.20;68.10;;;;;;4963993;28;95684;-51
2022/09/26 01:11:23;;;;;;;69.93;51.60;;;19.30;68.10;;;;;;4961741;28;95065;-50
2022/09/26 01:13:51;;;;;;;72.43;52.70;;;19.30;68.10;;;;;;4960686;28;95404;-54
2022/09/26 01:16:17;;;;;;;73.45;53.78;;;19.30;67.90;;;;;;4962226;28;96149;-49
2022/09/26 01:18:44;;;;;;;74.30;53.22;;;19.20;67.90;;;;;;4962084;28;96190;-51
2022/09/26 01:21:28;;;;;;;73.65;53.30;;;19.20;68.00;;;;;;4954891;28;96238;-50
2022/09/26 01:24:18;;;;;;;73.47;54.08;;;19.30;67.90;;;;;;4959184;28;97126;-48
2022/09/26 01:27:10;;;;;;;73.55;53.00;;;19.20;68.00;;;;;;4960359;28;95037;-48
2022/09/26 01:30:00;;;;;;;70.43;52.20;;;19.30;67.90;;;;;;4958864;28;95409;-47
2022/09/26 01:33:05;;;;;;;71.13;52.50;;;19.30;67.70;;;;;;4959325;28;96014;-49
2022/09/26 01:36:13;;;;;;;71.45;52.88;;;19.20;67.90;;;;;;4964673;28;96160;-51
2022/09/26 01:38:58;;;;;;;71.40;52.45;;;19.20;67.90;;;;;;4958627;28;97178;-51
2022/09/26 01:41:27;;;;;;;74.93;52.88;;;19.20;68.50;;;;;;4958776;28;95113;-48
2022/09/26 01:44:14;;;;;;;71.28;52.60;;;19.20;68.00;;;;;;4958940;28;100560;-47
2022/09/26 01:47:08;;;;;;;69.95;51.13;;;19.20;67.70;;;;;;4959103;28;95154;-53
2022/09/26 01:49:47;;;;;;;71.90;52.97;;;19.20;67.70;;;;;;4965578;28;96278;-50
2022/09/26 01:52:15;;;;;;;72.47;52.30;;;19.20;67.80;;;;;;4964920;28;95084;-48
2022/09/26 01:54:53;;;;;;;71.85;52.67;;;19.20;67.80;;;;;;4960198;28;94890;-50
2022/09/26 01:57:28;;;;;;;72.78;53.20;;;19.20;67.80;;;;;;4964130;28;98784;-50
2022/09/26 01:59:59;;;;;;;71.05;51.80;;;19.20;68.00;;;;;;4962033;28;97100;-50
2022/09/26 02:02:29;;;;;;;70.53;52.58;;;19.20;67.80;;;;;;4960844;28;97150;-51
2022/09/26 02:05:05;;;;;;;72.50;52.13;;;19.20;67.80;;;;;;4957750;28;94998;-49
2022/09/26 02:07:46;;;;;;;69.72;52.38;;;19.20;67.60;;;;;;4972772;28;94807;-49
2022/09/26 02:10:24;;;;;;;71.85;52.58;;;19.10;67.80;;;;;;4966826;28;94867;-52
2022/09/26 02:12:57;;;;;;;70.28;51.60;;;19.20;67.80;;;;;;4969651;28;96242;-50
2022/09/26 02:15:25;;;;;;;70.55;52.17;;;19.20;67.80;;;;;;4961906;28;95932;-49
2022/09/26 02:18:01;;;;;;;70.50;51.97;;;19.10;67.70;;;;;;4963055;28;96950;-51
2022/09/26 02:20:33;;;;;;;69.40;51.88;;;19.10;67.80;;;;;;4956394;28;95103;-48
2022/09/26 02:23:02;;;;;;;72.00;52.78;;;19.10;67.70;;;;;;4964420;28;95844;-49
2022/09/26 02:25:29;;;;;;;71.15;52.33;;;19.10;67.70;;;;;;4977530;28;95832;-52
2022/09/26 02:27:55;;;;;;;71.78;52.63;;;19.10;67.70;;;;;;4952056;28;96455;-54
2022/09/26 02:30:21;;;;;;;71.05;51.85;;;19.10;67.70;;;;;;4961605;28;95270;-53
2022/09/26 02:32:47;;;;;;;69.68;51.33;;;19.10;67.70;;;;;;4962148;28;95516;-50
2022/09/26 02:35:53;;;;;;;72.55;52.25;;;19.10;67.70;;;;;;4966048;28;96598;-51
2022/09/26 02:37:59;;;;;;;70.72;51.97;;;19.10;67.90;;;;;;4962833;28;95501;-50
2022/09/26 02:40:41;;;;;;;69.72;51.95;;;19.10;67.70;;;;;;4963675;28;96370;-52
2022/09/26 02:43:40;;;;;;;70.82;51.40;;;19.10;67.70;;;;;;4962555;28;96397;-51
2022/09/26 02:46:15;;;;;;;69.55;51.53;;;19.10;67.70;;;;;;4956723;28;96435;-48
2022/09/26 02:49:10;;;;;;;70.05;52.13;;;19.00;67.80;;;;;;4963913;28;95625;-49
2022/09/26 02:52:02;;;;;;;69.93;51.22;;;19.10;67.70;;;;;;4958272;28;95261;-50
2022/09/26 02:55:04;;;;;;;69.72;51.92;;;19.10;68.40;;;;;;4964323;28;96185;-50
2022/09/26 02:58:04;;;;;;;69.97;51.28;;;19.10;67.70;;;;;;4958718;28;96007;-50
2022/09/26 03:01:07;;;;;;;69.28;51.40;;;19.00;67.60;;;;;;4958484;28;95563;-48
2022/09/26 03:03:34;;;;;;;69.00;50.80;;;19.00;67.60;;;;;;4972971;28;96777;-51
2022/09/26 03:06:02;;;;;;;70.88;51.85;;;19.00;67.60;;;;;;4956799;28;95536;-52
2022/09/26 03:08:32;;;;;;;70.57;52.28;;;19.00;67.70;;;;;;4961256;28;96130;-50
2022/09/26 03:11:04;;;;;;;69.47;51.58;;;19.00;67.50;;;;;;4960866;28;96107;-58
2022/09/26 03:13:34;;;;;;;69.60;51.38;;;19.00;67.60;;;;;;4966201;28;95466;-58
2022/09/26 03:16:00;;;;;;;68.70;51.05;;;19.00;67.30;;;;;;4959828;28;95033;-58
2022/09/26 03:18:34;;;;;;;69.95;51.63;;;19.00;67.40;;;;;;4961786;28;96504;-58
2022/09/26 03:21:00;;;;;;;70.20;51.60;;;19.00;67.40;;;;;;4965573;28;96000;-58
2022/09/26 03:23:27;;;;;;;68.50;50.55;;;19.00;67.50;;;;;;4958491;28;95373;-57
2022/09/26 03:26:07;;;;;;;69.70;51.15;;;19.00;67.30;;;;;;4960072;28;95445;-59
2022/09/26 03:28:32;;;;;;;69.05;51.25;;;19.00;67.50;;;;;;4961879;28;95021;-57
2022/09/26 03:30:58;;;;;;;68.03;50.67;;;19.00;68.40;;;;;;4961644;28;96935;-51
2022/09/26 03:33:24;;;;;;;69.55;51.17;;;19.00;67.60;;;;;;4965880;28;95135;-51
2022/09/26 03:35:49;;;;;;;69.10;51.05;;;19.00;67.50;;;;;;4970649;28;97078;-49
2022/09/26 03:38:15;;;;;;;68.75;50.50;;;19.00;67.40;;;;;;4956626;28;95905;-49
2022/09/26 03:40:42;;;;;;;70.32;51.38;;;19.00;67.20;;;;;;4964720;28;95832;-50
2022/09/26 03:43:09;;;;;;;68.15;50.70;;;18.90;67.30;;;;;;4956779;28;96383;-51
2022/09/26 03:45:35;;;;;;;70.10;50.97;;;19.00;67.40;;;;;;4959897;28;96888;-50
2022/09/26 03:48:01;;;;;;;68.28;50.13;;;18.90;67.30;;;;;;4965766;28;96565;-49
2022/09/26 03:50:27;;;;;;;67.90;50.67;;;18.90;67.50;;;;;;4969459;28;95334;-51
2022/09/26 03:52:53;;;;;;;67.88;50.38;;;18.90;67.50;;;;;;4966115;28;95824;-51
2022/09/26 03:55:18;;;;;;;69.38;50.50;;;18.90;67.40;;;;;;4965100;28;95306;-51
2022/09/26 03:57:44;;;;;;;69.50;51.42;;;18.90;67.60;;;;;;4972104;28;97196;-51
2022/09/26 04:00:10;;;;;;;69.03;51.33;;;18.90;67.60;;;;;;4968485;28;95274;-51
2022/09/26 04:02:36;;;;;;;69.10;51.15;;;18.90;68.20;;;;;;4972302;28;94988;-48
2022/09/26 04:05:02;;;;;;;68.32;50.55;;;18.90;67.40;;;;;;4966912;28;96054;-52
2022/09/26 04:07:28;;;;;;;68.50;51.10;;;18.90;67.30;;;;;;4959082;28;95548;-52
2022/09/26 04:09:54;;;;;;;68.43;50.45;;;18.90;67.30;;;;;;4969166;28;101375;-50
2022/09/26 04:12:20;;;;;;;69.72;51.38;;;19.00;67.30;;;;;;4953590;28;97529;-48
2022/09/26 04:14:45;;;;;;;69.15;50.55;;;18.90;67.50;;;;;;4955444;28;95611;-52
2022/09/26 04:17:12;;;;;;;69.18;50.83;;;18.90;67.30;;;;;;4971800;28;96617;-50
2022/09/26 04:19:37;;;;;;;68.32;50.65;;;18.90;67.40;;;;;;4963721;28;95317;-48
2022/09/26 04:22:03;;;;;;;68.72;50.45;;;18.90;67.30;;;;;;4957876;28;96758;-52
2022/09/26 04:24:29;;;;;;;69.82;51.22;;;18.90;67.20;;;;;;4953192;28;96407;-50
2022/09/26 04:26:55;;;;;;;69.32;51.13;;;18.90;67.50;;;;;;4963144;28;94514;-53
2022/09/26 04:29:21;;;;;;;69.32;50.78;;;18.90;67.40;;;;;;4960747;28;96442;-50
2022/09/26 04:31:46;;;;;;;68.82;50.85;;;18.90;67.20;;;;;;4962054;28;96419;-52
2022/09/26 04:34:13;;;;;;;70.45;50.97;;;18.90;67.30;;;;;;4964076;28;96821;-50
2022/09/26 04:36:40;;;;;;;69.38;50.72;;;18.90;67.30;;;;;;4971585;28;96086;-51
2022/09/26 04:39:06;;;;;;;69.10;50.53;;;18.90;67.30;;;;;;4951413;28;102408;-48
2022/09/26 04:41:32;;;;;;;68.35;49.95;;;18.90;67.30;;;;;;4960245;28;95656;-51
2022/09/26 04:43:59;;;;;;;68.28;50.72;;;18.90;67.20;;;;;;4965891;28;96520;-48
2022/09/26 04:46:27;;;;;;;68.22;50.22;;;18.90;67.20;;;;;;4965282;28;96676;-50
2022/09/26 04:48:54;;;;;;;69.15;50.15;;;18.80;67.20;;;;;;4964538;28;96289;-52
2022/09/26 04:51:22;;;;;;;68.43;49.95;;;18.90;67.30;;;;;;4957377;28;95836;-47
2022/09/26 04:53:49;;;;;;;68.45;50.60;;;18.80;67.20;;;;;;4963362;28;95650;-52
2022/09/26 04:56:16;;;;;;;67.93;50.15;;;18.90;67.20;;;;;;4976254;28;95236;-51
2022/09/26 04:58:43;;;;;;;68.38;50.17;;;18.80;67.00;;;;;;4964987;28;98124;-49
2022/09/26 05:01:11;;;;;;;67.75;50.17;;;18.80;67.20;;;;;;4962250;28;96442;-48
2022/09/26 05:03:37;;;;;;;67.63;50.28;;;18.80;67.10;;;;;;4962894;28;97284;-47
2022/09/26 05:06:06;;;;;;;67.72;50.50;;;18.80;67.30;;;;;;4969033;28;96643;-49
2022/09/26 05:08:31;;;;;;;67.70;50.13;;;18.80;67.20;;;;;;4963887;28;95058;-47
2022/09/26 05:10:58;;;;;;;67.90;50.55;;;18.80;67.20;;;;;;4965641;28;98213;-49
2022/09/26 05:13:25;;;;;;;67.30;50.13;;;18.80;67.20;;;;;;4964580;28;95504;-47
2022/09/26 05:15:54;;;;;;;68.55;50.30;;;18.80;67.00;;;;;;4969839;28;94419;-48
2022/09/26 05:18:24;;;;;;;68.18;50.35;;;18.80;67.20;;;;;;4956739;28;95863;-48
2022/09/26 05:20:50;;;;;;;68.22;50.50;;;18.80;67.10;;;;;;4962165;28;95497;-49
2022/09/26 05:26:22;;;;;;;68.30;50.50;;;18.90;67.00;;;;;;4968286;28;95632;-50
2022/09/26 05:29:00;;;;;;;70.68;50.05;;;18.80;66.90;;;;;;4965624;28;95840;-51
2022/09/26 05:31:28;;;;;;;67.95;50.35;;;18.80;67.20;;;;;;4966135;28;95153;-54
2022/09/26 05:33:56;;;;;;;67.70;49.72;;;18.80;67.10;;;;;;4957104;28;96708;-49
2022/09/26 05:36:23;;;;;;;68.60;50.17;;;18.90;66.60;;;;;;4943265;28;96716;-54
2022/09/26 05:38:49;;;;;;;67.45;49.92;;;19.10;66.60;;;;;;4956684;28;97518;-49
2022/09/26 05:41:15;;;;;;;68.78;50.03;;;19.20;66.50;;;;;;4965094;28;94611;-53
2022/09/26 05:43:41;;;;;;;74.57;50.08;;;19.20;66.60;;;;;;4950039;28;96459;-48
2022/09/26 05:46:09;;;;;;;68.00;50.05;;;19.20;66.20;;;;;;4954942;28;94982;-49
2022/09/26 05:48:37;;;;;;;68.65;50.58;;;19.20;65.70;;;;;;4956993;28;96493;-51
2022/09/26 05:51:05;;;;;;;67.80;50.10;;;19.30;66.00;;;;;;4964362;28;101692;-53
2022/09/26 05:53:32;;;;;;;68.50;50.08;;;19.30;66.20;;;;;;4965238;28;96471;-50
2022/09/26 05:55:58;;;;;;;67.18;49.67;;;19.40;66.50;;;;;;4961276;28;97508;-48
2022/09/26 05:58:27;;;;;;;67.88;50.22;;;19.40;66.30;;;;;;4948541;28;95146;-48
2022/09/26 06:00:53;;;;;;;68.45;50.28;;;19.50;66.10;;;;;;4959860;28;95712;-50
2022/09/26 06:03:18;;;;;;;70.28;50.00;;;19.50;65.70;;;;;;4955313;28;98097;-47
2022/09/26 06:05:45;;;;;;;70.53;50.22;;;19.40;65.80;;;;;;4957236;28;95748;-50
2022/09/26 06:08:11;;;;;;;71.90;50.00;;;19.40;66.00;;;;;;4965349;28;95613;-47
2022/09/26 06:10:37;;;;;;;71.32;50.13;;;19.50;66.10;;;;;;4971419;28;95773;-47
2022/09/26 06:13:04;;;;;;;68.15;50.25;;;19.60;66.00;;;;;;4953140;28;96385;-47
2022/09/26 06:15:30;;;;;;;69.05;50.13;;;19.60;65.70;;;;;;4950513;28;96087;-47
2022/09/26 06:18:03;;;;;;;68.10;50.30;;;19.60;65.50;;;;;;4956139;28;96325;-49
2022/09/26 06:20:31;;;;;;;68.70;50.28;;;19.70;65.30;;;;;;4961932;28;99115;-53
2022/09/26 06:22:57;;;;;;;69.43;49.97;;;19.70;65.20;;;;;;4953813;28;95614;-49
2022/09/26 06:25:24;;;;;;;67.55;49.97;;;19.80;64.90;;;;;;4951207;28;94931;-50
2022/09/26 06:27:55;;;;;;;69.15;50.20;;;19.90;64.60;;;;;;4955075;28;97011;-48
2022/09/26 06:30:22;;;;;;;;;;;19.90;64.40;;;;;;4957654;28;94435;-48
2022/09/26 06:32:50;;;;;;;67.25;49.83;;;19.90;64.40;;;;;;4959301;28;97113;-50
2022/09/26 06:35:16;;;;;;;69.78;49.88;;;20.00;64.30;;;;;;4962478;28;99428;-50
2022/09/26 06:37:42;;;;;;;67.97;50.25;;;20.00;63.90;;;;;;4955253;28;95765;-53
2022/09/26 06:40:10;;;;;;;68.18;50.17;;;20.10;63.50;;;;;;4961165;28;95010;-56
2022/09/26 06:42:39;;;;;;;67.82;50.10;;;20.10;63.40;;;;;;4947615;28;98764;-52
2022/09/26 06:45:09;;;;;;;67.72;49.97;;;20.20;63.00;;;;;;4955001;28;98842;-50
2022/09/26 06:47:35;;;;;;;68.32;49.75;;;20.20;62.90;;;;;;4967101;28;95032;-53
2022/09/26 06:50:01;;;;;;;67.85;50.10;;;20.20;62.90;;;;;;4968796;28;96209;-49
2022/09/26 06:52:32;;;;;;;66.90;49.55;;;20.30;62.40;;;;;;4957973;28;96706;-49
2022/09/26 06:54:58;;;;;;;68.60;50.22;;;20.30;62.20;;;;;;4964189;28;95513;-52
2022/09/26 06:57:24;;;;;;;68.25;49.80;;;20.40;62.20;;;;;;4952354;28;95909;-51
2022/09/26 06:59:49;;;;;;;68.18;50.35;;;20.40;62.10;;;;;;4955468;28;95338;-47
2022/09/26 07:02:15;;;;;;;68.50;50.08;;;20.40;62.10;;;;;;4954182;28;97967;-49
2022/09/26 07:04:41;;;;;;;70.30;50.35;;;20.40;62.10;;;;;;4958110;28;102275;-51
2022/09/26 07:07:07;;;;;;;70.13;50.20;;;20.20;63.10;;;;;;4964260;28;97151;-50
2022/09/26 07:09:33;;;;;;;69.68;50.45;;;20.00;63.60;;;;;;4959602;28;96824;-53
2022/09/26 07:11:59;;;;;;;71.47;50.50;;;20.00;64.20;;;;;;4958932;28;96504;-49
2022/09/26 07:14:25;;;;;;;67.97;50.15;;;20.00;64.00;;;;;;4949421;28;95511;-54
2022/09/26 07:16:50;;;;;;;69.70;50.17;;;20.00;63.80;;;;;;4956231;28;101865;-49
2022/09/26 07:19:17;;;;;;;71.75;50.00;;;20.00;64.20;;;;;;4961288;28;98242;-48
2022/09/26 07:21:43;;;;;;;69.88;50.42;;;20.10;64.10;;;;;;4957441;28;95491;-50
2022/09/26 07:24:12;;;;;;;70.90;50.83;;;20.00;64.20;;;;;;4951830;28;95490;-52
2022/09/26 07:26:40;;;;;;;70.68;50.67;;;20.10;64.30;;;;;;4963283;28;97137;-50
2022/09/26 07:29:06;;;;;;;69.90;50.53;;;20.10;64.70;;;;;;4951444;28;96584;-50
2022/09/26 07:31:32;;;;;;;70.50;50.53;;;20.10;64.60;;;;;;4962018;28;95987;-50
2022/09/26 07:33:57;;;;;;;71.25;50.95;;;20.20;64.30;;;;;;4952490;28;96095;-53
2022/09/26 07:36:23;;;;;;;70.95;51.17;;;20.40;63.40;;;;;;4964975;28;95482;-46
2022/09/26 07:38:49;;;;;;;72.22;51.33;;;20.60;63.00;;;;;;4962485;28;95518;-51
2022/09/26 07:41:16;;;;;;;70.95;51.42;;;20.60;62.50;;;;;;4964278;28;96217;-46
2022/09/26 07:43:42;;;;;;;71.57;51.00;;;20.70;62.50;;;;;;4958001;28;96220;-50
2022/09/26 07:51:37;;;;;;;73.63;51.22;;;20.40;64.70;;;;;;4946738;28;96659;-51
2022/09/26 07:54:04;;;;;;;73.90;52.25;;;20.50;64.30;;;;;;4956975;28;97427;-49
2022/09/26 07:56:32;;;;;;;72.95;51.72;;;20.60;63.70;;;;;;4963118;28;95131;-48
2022/09/26 07:59:00;;;;;;;75.60;52.55;;;20.70;63.30;;;;;;4963140;28;99375;-50
2022/09/26 08:01:26;;;;;;;73.80;52.13;;;20.50;63.90;;;;;;4965287;28;95417;-50
2022/09/26 08:03:53;;;;;;;74.60;52.70;;;20.30;64.60;;;;;;4964866;28;96963;-49
2022/09/26 08:06:19;;;;;;;75.95;52.38;;;20.30;65.00;;;;;;4957009;28;95125;-51
2022/09/26 08:08:46;;;;;;;73.90;52.30;;;20.20;64.90;;;;;;4961394;28;98206;-48
2022/09/26 08:11:16;;;;;;;74.32;52.30;;;20.30;64.90;;;;;;4947858;28;95179;-47
2022/09/26 08:13:43;;;;;;;80.85;52.20;;;20.40;65.40;;;;;;4944411;28;95859;-49
2022/09/26 08:16:10;;;;;;;74.05;51.85;;;20.30;66.30;;;;;;4963105;28;98176;-52
2022/09/26 08:18:36;;;;;;;73.43;51.90;;;20.40;65.90;;;;;;4957378;28;102813;-50
2022/09/26 08:21:07;;;;;;;79.18;52.72;;;20.50;64.60;;;;;;4940277;28;95289;-47
2022/09/26 08:23:33;;;;;;;76.57;52.42;;;20.40;65.10;;;;;;4950665;28;98177;-52
2022/09/26 08:26:05;;;;;;;73.35;52.03;;;20.30;65.50;;;;;;4961319;28;95051;-51
2022/09/26 08:28:33;;;;;;;74.75;51.63;;;20.40;65.90;;;;;;4955672;28;95293;-53
2022/09/26 08:30:59;;;;;;;79.18;52.92;;;20.60;64.80;;;;;;4946136;28;96423;-54
2022/09/26 08:33:25;;;;;;;76.72;52.85;;;20.60;64.40;;;;;;4960050;28;95047;-51
2022/09/26 08:35:51;;;;;;;73.65;51.80;;;20.50;65.00;;;;;;4949781;28;95443;-51
2022/09/26 08:38:17;;;;;;;73.70;51.72;;;20.60;64.50;;;;;;4968839;28;96195;-49
2022/09/26 08:41:31;;;;;;;79.07;52.25;;;20.70;64.10;;;;;;4965775;28;95916;-53
2022/09/26 08:44:05;;;;;;;74.88;51.22;;;20.70;63.90;;;;;;4938234;28;96350;-53
2022/09/26 08:46:49;;;;;;;77.68;51.75;;;20.70;64.20;;;;;;4960356;28;95108;-49
2022/09/26 08:49:41;;;;;;;74.80;51.75;;;20.70;63.80;;;;;;4965275;28;95395;-50
2022/09/26 08:52:32;;;;;;;76.22;52.60;;;20.70;63.40;;;;;;4953524;28;98346;-50
2022/09/26 08:55:04;;;;;;;74.30;51.90;;;20.80;63.00;;;;;;4958128;28;96480;-49
2022/09/26 08:57:43;;;;;;;77.07;52.22;;;20.80;62.80;;;;;;4965040;28;95116;-51
2022/09/26 09:00:12;;;;;;;74.00;51.92;;;20.80;62.60;;;;;;4959914;28;94195;-47
2022/09/26 09:02:54;;;;;;;79.88;52.92;;;20.90;62.70;;;;;;4960390;28;95042;-55
2022/09/26 09:05:27;;;;;;;76.47;51.22;;;20.80;62.70;;;;;;4956758;28;96926;-52
2022/09/26 09:07:55;;;;;;;73.65;51.72;;;20.80;62.50;;;;;;4968655;28;97082;-54
2022/09/26 09:10:43;;;;;;;75.75;51.70;;;20.80;62.50;;;;;;4960385;28;95760;-52
2022/09/26 09:13:32;;;;;;;74.65;52.03;;;20.80;62.70;;;;;;4960180;28;95655;-51
2022/09/26 09:16:14;;;;;;;73.15;51.38;;;20.80;62.80;;;;;;4954205;28;96914;-50
2022/09/26 09:19:17;;;;;;;71.80;51.25;;;20.80;62.60;;;;;;4959015;28;95501;-52
2022/09/26 09:22:18;;;;;;;75.63;51.83;;;20.80;62.30;;;;;;4957674;28;96555;-52
2022/09/26 09:25:16;;;;;;;75.83;51.57;;;20.80;62.90;;;;;;4964814;28;96464;-48
2022/09/26 09:27:59;;;;;;;74.97;51.53;;;20.70;62.60;;;;;;4937301;28;95762;-51
2022/09/26 09:30:34;;;;;;;76.72;51.65;;;20.80;62.50;;;;;;4962109;28;96426;-52
2022/09/26 09:33:10;;;;;;;75.13;52.03;;;20.80;62.30;;;;;;4966281;28;97173;-48
2022/09/26 09:35:39;;;;;;;78.72;51.97;;;20.80;62.10;;;;;;4948363;28;97422;-50
2022/09/26 09:38:06;;;;;;;73.53;51.60;;;20.80;61.90;;;;;;4962385;28;95585;-47
2022/09/26 09:40:35;;;;;;;74.43;51.80;;;20.70;62.80;;;;;;4962563;28;97688;-49
2022/09/26 09:43:14;;;;;;;77.13;51.97;;;20.80;62.90;;;;;;4960788;28;98287;-52
2022/09/26 09:45:45;;;;;;;72.00;51.13;;;20.90;62.50;;;;;;4964896;28;95555;-48
2022/09/26 09:48:14;;;;;;;73.88;51.45;;;20.90;62.10;;;;;;4956383;28;94943;-51
2022/09/26 09:51:09;;;;;;;76.35;52.17;;;20.90;62.10;;;;;;4953233;28;95363;-50
2022/09/26 09:53:51;;;;;;;77.32;51.88;;;21.00;62.20;;;;;;4966532;28;95401;-50
2022/09/26 09:56:26;;;;;;;78.15;51.72;;;21.00;62.10;;;;;;4957039;28;96121;-51
2022/09/26 09:59:27;;;;;;;75.88;51.83;;;21.00;62.00;;;;;;4951013;28;95876;-51
2022/09/26 10:02:30;;;;;;;75.72;51.90;;;21.00;62.20;;;;;;4948603;28;99119;-48
2022/09/26 10:05:22;;;;;;;75.28;51.35;;;21.00;62.10;;;;;;4960016;28;95093;-51
2022/09/26 10:07:49;;;;;;;74.28;51.88;;;21.00;62.10;;;;;;4959483;28;97441;-47
2022/09/26 10:10:23;;;;;;;77.47;52.25;;;20.90;62.40;;;;;;4961516;28;95687;-50
2022/09/26 10:12:50;;;;;;;73.38;51.83;;;20.90;62.10;;;;;;4961116;28;96665;-52
2022/09/26 10:15:19;;;;;;;74.30;52.20;;;20.90;61.50;;;;;;4965146;28;95653;-57
2022/09/26 10:18:15;;;;;;;74.43;51.88;;;20.90;61.90;;;;;;4956581;28;97165;-50
2022/09/26 10:20:51;;;;;;;74.18;51.50;;;20.90;61.50;;;;;;4955694;28;94863;-48
2022/09/26 10:23:31;;;;;;;71.68;50.95;;;20.90;60.90;;;;;;4958841;28;96116;-51
2022/09/26 10:26:06;;;;;;;70.32;50.72;;;20.80;60.70;;;;;;4960226;28;95271;-53
2022/09/26 10:28:54;;;;;;;73.22;50.60;;;20.90;60.60;;;;;;4952477;28;98849;-53
2022/09/26 10:31:28;;;;;;;73.05;51.10;;;20.90;60.40;;;;;;4960753;28;99003;-51
2022/09/26 10:34:06;;;;;;;72.15;51.03;;;20.90;60.30;;;;;;4963623;28;95793;-53
2022/09/26 10:36:39;;;;;;;70.70;50.70;;;20.80;60.60;;;;;;4956550;28;97433;-52
2022/09/26 10:42:03;;;;;;;70.22;50.80;;;20.90;60.50;;;;;;4963924;28;100574;-48
2022/09/26 10:44:33;;;;;;;70.63;50.90;;;20.80;60.90;;;;;;4956313;28;101951;-49
2022/09/26 10:47:07;;;;;;;72.60;50.95;;;20.80;61.50;;;;;;4955912;28;94742;-49
2022/09/26 10:49:49;;;;;;;70.30;50.67;;;20.70;61.80;;;;;;4952396;28;96763;-50
2022/09/26 10:52:28;;;;;;;71.57;51.15;;;20.60;62.30;;;;;;4962441;28;95823;-54
2022/09/26 10:55:10;;;;;;;71.22;51.03;;;20.60;62.70;;;;;;4967839;28;95783;-51
2022/09/26 10:57:44;;;;;;;72.20;50.97;;;20.60;62.60;;;;;;4964432;28;96487;-49
2022/09/26 11:00:20;;;;;;;72.35;51.10;;;20.70;61.80;;;;;;4957244;28;96365;-47
2022/09/26 11:02:50;;;;;;;69.40;50.22;;;20.70;61.40;;;;;;4965810;28;94994;-54
2022/09/26 11:08:09;;;;;;;70.93;50.60;;;20.70;61.30;;;;;;4960292;28;96353;-48
2022/09/26 11:10:37;;;;;;;69.80;50.38;;;20.70;61.40;;;;;;4957601;28;96542;-51
2022/09/26 11:13:17;;;;;;;70.00;50.58;;;20.60;61.60;;;;;;4964035;28;95388;-48
2022/09/26 11:15:52;;;;;;;73.18;51.38;;;20.60;62.40;;;;;;4950804;28;95358;-51
2022/09/26 11:18:27;;;;;;;74.32;50.75;;;20.70;62.60;;;;;;4950276;28;96910;-52
2022/09/26 11:21:00;;;;;;;72.20;51.45;;;20.60;63.00;;;;;;4949976;28;97286;-46
2022/09/26 11:23:49;;;;;;;70.30;50.85;;;20.70;62.90;;;;;;4960163;28;96583;-48
2022/09/26 11:26:22;;;;;;;74.90;51.22;;;20.80;62.30;;;;;;4959827;28;95403;-49
2022/09/26 11:29:00;;;;;;;71.82;50.95;;;20.70;62.40;;;;;;4962349;28;95118;-51
2022/09/26 11:31:39;;;;;;;73.70;51.28;;;20.90;62.10;;;;;;4959100;28;97355;-50
2022/09/26 11:34:12;;;;;;;72.43;50.65;;;20.90;62.00;;;;;;4955216;28;95394;-52
2022/09/26 11:37:13;;;;;;;71.50;50.72;;;20.90;61.80;;;;;;4959111;28;95021;-49
2022/09/26 11:39:58;;;;;;;71.93;50.57;;;21.00;62.80;;;;;;4947806;28;96165;-51
2022/09/26 11:42:54;;;;;;;70.38;50.35;;;21.00;61.90;;;;;;4962435;28;95749;-46
2022/09/26 11:45:47;;;;;;;71.63;50.63;;;21.00;61.80;;;;;;4924336;28;96563;-49
2022/09/26 11:48:44;;;;;;;71.22;50.70;;;21.00;61.70;;;;;;4955607;28;97003;-47
2022/09/26 11:52:07;;;;;;;71.25;51.13;;;20.90;61.50;;;;;;4968517;28;96545;-48
2022/09/26 11:55:17;;;;;;;73.30;50.60;;;20.90;62.50;;;;;;4897662;28;95594;-46
2022/09/26 11:57:52;;;;;;;71.15;50.83;;;20.90;62.60;;;;;;4794091;29;95052;-49
2022/09/26 12:00:25;;;;;;;74.47;50.92;;;20.90;62.60;;;;;;4938858;28;101510;-51
2022/09/26 12:03:06;;;;;;;70.10;50.47;;;20.80;63.10;;;;;;4961794;28;95797;-54
2022/09/26 12:05:34;;;;;;;71.95;50.72;;;20.90;63.30;;;;;;4964715;28;94719;-52
2022/09/26 12:08:20;;;;;;;70.60;50.53;;;21.00;62.80;;;;;;4959752;28;101155;-51
2022/09/26 12:10:49;;;;;;;71.47;50.58;;;21.00;62.90;;;;;;4954546;28;95110;-48
2022/09/26 12:13:14;;;;;;;74.75;50.78;;;20.90;63.10;;;;;;4956947;28;96163;-50
2022/09/26 12:15:53;;;;;;;70.68;51.00;;;20.80;63.90;;;;;;4950627;28;96463;-52
2022/09/26 12:18:37;;;;;;;75.78;51.13;;;20.70;64.50;;;;;;4966498;28;101435;-53
2022/09/26 12:21:09;;;;;;;73.60;50.60;;;20.80;64.00;;;;;;4968766;28;96469;-51
2022/09/26 12:23:37;;;;;;;;;;;20.90;63.40;;;;;;4964091;28;98007;-50
2022/09/26 12:26:38;;;;;;;71.55;50.47;;;21.00;63.20;;;;;;4979292;28;95380;-50
2022/09/26 12:29:43;;;;;;;71.97;50.70;;;21.00;63.00;;;;;;4955903;28;99040;-48
2022/09/26 12:32:50;;;;;;;70.65;50.58;;;21.00;62.90;;;;;;4954674;28;95700;-49
2022/09/26 12:35:34;;;;;;;69.75;50.55;;;21.00;62.90;;;;;;4941636;28;94460;-48
2022/09/26 12:38:12;;;;;;;72.72;50.92;;;21.10;62.80;;;;;;4963483;28;97554;-49
2022/09/26 12:41:08;;;;;;;72.50;50.55;;;21.00;63.00;;;;;;4957822;28;97283;-55
2022/09/26 12:44:06;;;;;;;71.70;50.70;;;21.10;62.80;;;;;;4969491;28;96263;-51
2022/09/26 12:46:46;;;;;;;71.15;50.47;;;21.10;62.80;;;;;;4930459;28;95557;-50
2022/09/26 12:49:30;;;;;;;71.60;50.75;;;21.10;62.70;;;;;;4953717;28;95777;-48
2022/09/26 12:52:06;;;;;;;71.50;50.30;;;21.00;62.80;;;;;;4963361;28;95326;-50
2022/09/26 12:55:03;;;;;;;74.55;50.65;;;20.90;63.00;;;;;;4964047;28;95150;-52
2022/09/26 12:58:02;;;;;;;69.85;50.17;;;21.00;62.50;;;;;;4951080;28;95720;-53
2022/09/26 13:00:37;;;;;;;70.93;50.58;;;21.00;62.30;;;;;;4966361;28;95564;-50
2022/09/26 13:03:26;;;;;;;74.35;50.25;;;21.00;62.10;;;;;;4965146;28;96499;-50
2022/09/26 13:05:58;;;;;;;70.90;50.63;;;21.00;62.00;;;;;;4958532;28;95714;-53
2022/09/26 13:08:42;;;;;;;69.53;50.42;;;21.00;62.00;;;;;;4951094;28;96246;-50
2022/09/26 13:11:36;;;;;;;69.95;50.15;;;21.00;61.90;;;;;;4960742;28;97637;-49
2022/09/26 13:14:26;;;;;;;73.57;50.55;;;21.00;61.60;;;;;;4945954;28;99692;-51
2022/09/26 13:17:20;;;;;;;69.07;50.38;;;20.90;62.50;;;;;;4963572;28;95525;-48